sensor_id;sensor_type;location;lat;lon;timestamp;temperature;humidity
18581;DHT22;9420;50.876;7.012;2022-08-02T00:01:55;17.10;99.90
18581;DHT22;9420;50.876;7.012;2022-08-02T00:04:22;17.10;99.90
18581;DHT22;9420;50.876;7.012;2022-08-02T00:06:49;16.90;99.90
18581;DHT22;9420;50.876;7.012;2022-08-02T00:09:17;16.90;99.90
18581;DHT22;9420;50.876;7.012;2022-08-02T00:11:44;16.90;99.90
18581;DHT22;9420;50.876;7.012;2022-08-02T00:14:11;16.90;99.90
18581;DHT22;9420;50.876;7.012;2022-08-02T00:16:38;16.90;99.90
18581;DHT22;9420;50.876;7.012;2022-08-02T00:19:07;16.80;99.90
18581;DHT22;9420;50.876;7.012;2022-08-02T00:21:34;16.90;99.90
18581;DHT22;9420;50.876;7.012;2022-08-02T00:24:01;16.80;99.90
18581;DHT22;9420;50.876;7.012;2022-08-02T00:26:28;16.70;99.90
18581;DHT22;9420;50.876;7.012;2022-08-02T00:28:56;16.70;99.90
18581;DHT22;9420;50.876;7.012;2022-08-02T00:31:23;16.70;99.90
18581;DHT22;9420;50.876;7.012;2022-08-02T00:33:50;16.70;99.90
18581;DHT22;9420;50.876;7.012;2022-08-02T00:36:18;16.70;99.90
18581;DHT22;9420;50.876;7.012;2022-08-02T00:38:45;16.60;99.90
18581;DHT22;9420;50.876;7.012;2022-08-02T00:41:15;16.70;99.90
18581;DHT22;9420;50.876;7.012;2022-08-02T00:43:45;16.70;99.90
18581;DHT22;9420;50.876;7.012;2022-08-02T00:46:17;16.80;99.90
18581;DHT22;9420;50.876;7.012;2022-08-02T00:48:46;16.80;99.90
18581;DHT22;9420;50.876;7.012;2022-08-02T00:51:15;16.70;99.90
18581;DHT22;9420;50.876;7.012;2022-08-02T00:53:44;16.60;99.90
18581;DHT22;9420;50.876;7.012;2022-08-02T00:56:11;16.70;99.90
18581;DHT22;9420;50.876;7.012;2022-08-02T00:58:38;16.60;99.90
18581;DHT22;9420;50.876;7.012;2022-08-02T01:01:05;16.60;99.90
18581;DHT22;9420;50.876;7.012;2022-08-02T01:03:32;16.70;99.90
18581;DHT22;9420;50.876;7.012;2022-08-02T01:05:59;16.70;99.90
18581;DHT22;9420;50.876;7.012;2022-08-02T01:08:27;16.60;99.90
18581;DHT22;9420;50.876;7.012;2022-08-02T01:10:55;16.60;99.90
18581;DHT22;9420;50.876;7.012;2022-08-02T01:13:23;16.60;99.90
18581;DHT22;9420;50.876;7.012;2022-08-02T01:15:54;16.50;99.90
18581;DHT22;9420;50.876;7.012;2022-08-02T01:18:31;16.50;99.90
18581;DHT22;9420;50.876;7.012;2022-08-02T01:21:22;16.50;99.90
18581;DHT22;9420;50.876;7.012;2022-08-02T01:24:14;16.60;99.90
18581;DHT22;9420;50.876;7.012;2022-08-02T01:26:51;16.60;99.90
18581;DHT22;9420;50.876;7.012;2022-08-02T01:29:29;16.60;99.90
18581;DHT22;9420;50.876;7.012;2022-08-02T01:32:04;16.60;99.90
18581;DHT22;9420;50.876;7.012;2022-08-02T01:34:38;16.50;99.90
18581;DHT22;9420;50.876;7.012;2022-08-02T01:37:15;16.50;99.90
18581;DHT22;9420;50.876;7.012;2022-08-02T01:39:49;16.40;99.90
18581;DHT22;9420;50.876;7.012;2022-08-02T01:42:20;16.30;99.90
18581;DHT22;9420;50.876;7.012;2022-08-02T01:44:53;16.40;99.90
18581;DHT22;9420;50.876;7.012;2022-08-02T01:47:26;16.30;99.90
18581;DHT22;9420;50.876;7.012;2022-08-02T01:49:57;16.30;99.90
18581;DHT22;9420;50.876;7.012;2022-08-02T01:52:28;16.30;99.90
18581;DHT22;9420;50.876;7.012;2022-08-02T01:55:00;16.20;99.90
18581;DHT22;9420;50.876;7.012;2022-08-02T01:57:35;16.10;99.90
18581;DHT22;9420;50.876;7.012;2022-08-02T02:00:08;16.10;99.90
18581;DHT22;9420;50.876;7.012;2022-08-02T02:02:41;16.10;99.90
18581;DHT22;9420;50.876;7.012;2022-08-02T02:05:11;16.20;99.90
18581;DHT22;9420;50.876;7.012;2022-08-02T02:07:41;16.20;99.90
18581;DHT22;9420;50.876;7.012;2022-08-02T02:10:14;16.20;99.90
18581;DHT22;9420;50.876;7.012;2022-08-02T02:12:47;16.20;99.90
18581;DHT22;9420;50.876;7.012;2022-08-02T02:15:18;16.10;99.90
18581;DHT22;9420;50.876;7.012;2022-08-02T02:17:49;16.20;99.90
18581;DHT22;9420;50.876;7.012;2022-08-02T02:20:19;16.20;99.90
18581;DHT22;9420;50.876;7.012;2022-08-02T02:22:47;16.10;99.90
18581;DHT22;9420;50.876;7.012;2022-08-02T02:25:19;16.10;99.90
18581;DHT22;9420;50.876;7.012;2022-08-02T02:27:52;16.10;99.90
18581;DHT22;9420;50.876;7.012;2022-08-02T02:30:26;16.10;99.90
18581;DHT22;9420;50.876;7.012;2022-08-02T02:32:57;16.10;99.90
18581;DHT22;9420;50.876;7.012;2022-08-02T02:35:28;16.10;99.90
18581;DHT22;9420;50.876;7.012;2022-08-02T02:38:01;16.00;99.90
18581;DHT22;9420;50.876;7.012;2022-08-02T02:40:30;16.00;99.90
18581;DHT22;9420;50.876;7.012;2022-08-02T02:42:59;15.90;99.90
18581;DHT22;9420;50.876;7.012;2022-08-02T02:45:29;15.90;99.90
18581;DHT22;9420;50.876;7.012;2022-08-02T02:47:59;15.80;99.90
18581;DHT22;9420;50.876;7.012;2022-08-02T02:50:30;15.90;99.90
18581;DHT22;9420;50.876;7.012;2022-08-02T02:52:59;15.90;99.90
18581;DHT22;9420;50.876;7.012;2022-08-02T02:55:28;15.80;99.90
18581;DHT22;9420;50.876;7.012;2022-08-02T02:57:56;15.70;99.90
18581;DHT22;9420;50.876;7.012;2022-08-02T03:00:25;15.70;99.90
18581;DHT22;9420;50.876;7.012;2022-08-02T03:03:12;15.80;99.90
18581;DHT22;9420;50.876;7.012;2022-08-02T03:05:41;15.80;99.90
18581;DHT22;9420;50.876;7.012;2022-08-02T03:08:09;15.90;99.90
18581;DHT22;9420;50.876;7.012;2022-08-02T03:10:36;15.90;99.90
18581;DHT22;9420;50.876;7.012;2022-08-02T03:13:04;15.90;99.90
18581;DHT22;9420;50.876;7.012;2022-08-02T03:15:33;15.70;99.90
18581;DHT22;9420;50.876;7.012;2022-08-02T03:18:02;15.70;99.90
18581;DHT22;9420;50.876;7.012;2022-08-02T03:20:32;15.70;99.90
18581;DHT22;9420;50.876;7.012;2022-08-02T03:22:59;15.50;99.90
18581;DHT22;9420;50.876;7.012;2022-08-02T03:25:27;15.50;99.90
18581;DHT22;9420;50.876;7.012;2022-08-02T03:27:54;15.50;99.90
18581;DHT22;9420;50.876;7.012;2022-08-02T03:30:21;15.50;99.90
18581;DHT22;9420;50.876;7.012;2022-08-02T03:32:53;15.50;99.90
18581;DHT22;9420;50.876;7.012;2022-08-02T03:35:21;15.50;99.90
18581;DHT22;9420;50.876;7.012;2022-08-02T03:37:50;15.50;99.90
18581;DHT22;9420;50.876;7.012;2022-08-02T03:40:20;15.50;99.90
18581;DHT22;9420;50.876;7.012;2022-08-02T03:42:48;15.50;99.90
18581;DHT22;9420;50.876;7.012;2022-08-02T03:45:16;15.50;99.90
18581;DHT22;9420;50.876;7.012;2022-08-02T03:47:44;15.50;99.90
18581;DHT22;9420;50.876;7.012;2022-08-02T03:50:14;15.50;99.90
18581;DHT22;9420;50.876;7.012;2022-08-02T03:52:46;15.50;99.90
18581;DHT22;9420;50.876;7.012;2022-08-02T03:55:13;15.40;99.90
18581;DHT22;9420;50.876;7.012;2022-08-02T03:57:42;15.50;99.90
18581;DHT22;9420;50.876;7.012;2022-08-02T04:00:11;15.50;99.90
18581;DHT22;9420;50.876;7.012;2022-08-02T04:02:43;15.50;99.90
18581;DHT22;9420;50.876;7.012;2022-08-02T04:05:12;15.60;99.90
18581;DHT22;9420;50.876;7.012;2022-08-02T04:07:39;15.60;99.90
18581;DHT22;9420;50.876;7.012;2022-08-02T04:10:08;15.60;99.90
18581;DHT22;9420;50.876;7.012;2022-08-02T04:12:36;15.60;99.90
18581;DHT22;9420;50.876;7.012;2022-08-02T04:15:05;15.60;99.90
18581;DHT22;9420;50.876;7.012;2022-08-02T04:17:36;15.60;99.90
18581;DHT22;9420;50.876;7.012;2022-08-02T04:20:10;15.60;99.90
18581;DHT22;9420;50.876;7.012;2022-08-02T04:22:46;15.70;99.90
18581;DHT22;9420;50.876;7.012;2022-08-02T04:25:18;15.60;99.90
18581;DHT22;9420;50.876;7.012;2022-08-02T04:27:47;15.60;99.90
18581;DHT22;9420;50.876;7.012;2022-08-02T04:30:16;15.70;99.90
18581;DHT22;9420;50.876;7.012;2022-08-02T04:32:44;15.80;99.90
18581;DHT22;9420;50.876;7.012;2022-08-02T04:35:13;15.80;99.90
18581;DHT22;9420;50.876;7.012;2022-08-02T04:37:41;15.90;99.90
18581;DHT22;9420;50.876;7.012;2022-08-02T04:40:10;15.90;99.90
18581;DHT22;9420;50.876;7.012;2022-08-02T04:42:40;15.90;99.90
18581;DHT22;9420;50.876;7.012;2022-08-02T04:45:08;15.90;99.90
18581;DHT22;9420;50.876;7.012;2022-08-02T04:47:37;16.00;99.90
18581;DHT22;9420;50.876;7.012;2022-08-02T04:50:05;16.00;99.90
18581;DHT22;9420;50.876;7.012;2022-08-02T04:52:35;16.00;99.90
18581;DHT22;9420;50.876;7.012;2022-08-02T04:55:06;16.00;99.90
18581;DHT22;9420;50.876;7.012;2022-08-02T04:57:33;16.10;99.90
18581;DHT22;9420;50.876;7.012;2022-08-02T05:00:18;16.10;99.90
18581;DHT22;9420;50.876;7.012;2022-08-02T05:02:46;16.10;99.90
18581;DHT22;9420;50.876;7.012;2022-08-02T05:05:13;16.20;99.90
18581;DHT22;9420;50.876;7.012;2022-08-02T05:07:41;16.20;99.90
18581;DHT22;9420;50.876;7.012;2022-08-02T05:10:09;16.30;99.90
18581;DHT22;9420;50.876;7.012;2022-08-02T05:12:37;16.30;99.90
18581;DHT22;9420;50.876;7.012;2022-08-02T05:15:05;16.40;99.90
18581;DHT22;9420;50.876;7.012;2022-08-02T05:17:38;16.50;99.90
18581;DHT22;9420;50.876;7.012;2022-08-02T05:20:08;16.50;99.90
18581;DHT22;9420;50.876;7.012;2022-08-02T05:22:37;16.60;99.90
18581;DHT22;9420;50.876;7.012;2022-08-02T05:25:07;16.70;99.90
18581;DHT22;9420;50.876;7.012;2022-08-02T05:27:35;16.80;99.90
18581;DHT22;9420;50.876;7.012;2022-08-02T05:30:03;16.80;99.90
18581;DHT22;9420;50.876;7.012;2022-08-02T05:32:31;16.90;99.90
18581;DHT22;9420;50.876;7.012;2022-08-02T05:34:59;16.90;99.90
18581;DHT22;9420;50.876;7.012;2022-08-02T05:37:26;17.10;99.90
18581;DHT22;9420;50.876;7.012;2022-08-02T05:39:53;17.20;99.90
18581;DHT22;9420;50.876;7.012;2022-08-02T05:42:22;17.30;99.90
18581;DHT22;9420;50.876;7.012;2022-08-02T05:44:49;17.40;99.90
18581;DHT22;9420;50.876;7.012;2022-08-02T05:47:16;17.50;99.90
18581;DHT22;9420;50.876;7.012;2022-08-02T05:49:43;17.50;99.90
18581;DHT22;9420;50.876;7.012;2022-08-02T05:52:15;17.60;99.90
18581;DHT22;9420;50.876;7.012;2022-08-02T05:54:49;17.60;99.90
18581;DHT22;9420;50.876;7.012;2022-08-02T05:57:36;17.60;99.90
18581;DHT22;9420;50.876;7.012;2022-08-02T06:00:13;17.60;99.90
18581;DHT22;9420;50.876;7.012;2022-08-02T06:02:54;17.70;99.90
18581;DHT22;9420;50.876;7.012;2022-08-02T06:05:32;17.90;99.90
18581;DHT22;9420;50.876;7.012;2022-08-02T06:08:01;18.00;99.90
18581;DHT22;9420;50.876;7.012;2022-08-02T06:10:33;18.00;99.90
18581;DHT22;9420;50.876;7.012;2022-08-02T06:13:08;18.00;99.90
18581;DHT22;9420;50.876;7.012;2022-08-02T06:15:38;18.10;99.90
18581;DHT22;9420;50.876;7.012;2022-08-02T06:18:07;18.20;99.90
18581;DHT22;9420;50.876;7.012;2022-08-02T06:20:35;18.20;99.90
18581;DHT22;9420;50.876;7.012;2022-08-02T06:23:05;18.10;99.90
18581;DHT22;9420;50.876;7.012;2022-08-02T06:25:35;18.30;99.90
18581;DHT22;9420;50.876;7.012;2022-08-02T06:28:05;18.40;99.90
18581;DHT22;9420;50.876;7.012;2022-08-02T06:30:33;18.50;99.90
18581;DHT22;9420;50.876;7.012;2022-08-02T06:33:00;18.60;99.90
18581;DHT22;9420;50.876;7.012;2022-08-02T06:35:33;18.70;99.90
18581;DHT22;9420;50.876;7.012;2022-08-02T06:38:07;18.80;99.90
18581;DHT22;9420;50.876;7.012;2022-08-02T06:40:44;18.90;99.90
18581;DHT22;9420;50.876;7.012;2022-08-02T06:43:24;19.00;99.90
18581;DHT22;9420;50.876;7.012;2022-08-02T06:46:00;19.10;99.90
18581;DHT22;9420;50.876;7.012;2022-08-02T06:48:29;19.10;99.90
18581;DHT22;9420;50.876;7.012;2022-08-02T06:51:00;19.20;99.90
18581;DHT22;9420;50.876;7.012;2022-08-02T06:53:27;19.40;99.90
18581;DHT22;9420;50.876;7.012;2022-08-02T06:55:55;19.50;99.90
18581;DHT22;9420;50.876;7.012;2022-08-02T06:58:24;19.70;99.90
18581;DHT22;9420;50.876;7.012;2022-08-02T07:00:51;19.80;99.90
18581;DHT22;9420;50.876;7.012;2022-08-02T07:03:18;19.90;99.90
18581;DHT22;9420;50.876;7.012;2022-08-02T07:05:45;20.00;99.90
18581;DHT22;9420;50.876;7.012;2022-08-02T07:08:14;20.10;99.90
18581;DHT22;9420;50.876;7.012;2022-08-02T07:10:41;20.20;99.90
18581;DHT22;9420;50.876;7.012;2022-08-02T07:13:08;20.30;99.90
18581;DHT22;9420;50.876;7.012;2022-08-02T07:15:38;20.40;99.90
18581;DHT22;9420;50.876;7.012;2022-08-02T07:18:06;20.50;99.90
18581;DHT22;9420;50.876;7.012;2022-08-02T07:20:38;20.60;99.90
18581;DHT22;9420;50.876;7.012;2022-08-02T07:23:05;20.80;99.90
18581;DHT22;9420;50.876;7.012;2022-08-02T07:25:32;20.90;99.90
18581;DHT22;9420;50.876;7.012;2022-08-02T07:27:59;21.00;99.90
18581;DHT22;9420;50.876;7.012;2022-08-02T07:30:26;21.20;99.90
18581;DHT22;9420;50.876;7.012;2022-08-02T07:32:56;21.30;99.90
18581;DHT22;9420;50.876;7.012;2022-08-02T07:35:23;21.40;99.90
18581;DHT22;9420;50.876;7.012;2022-08-02T07:37:50;21.50;99.90
18581;DHT22;9420;50.876;7.012;2022-08-02T07:40:19;21.70;99.90
18581;DHT22;9420;50.876;7.012;2022-08-02T07:42:47;21.70;99.90
18581;DHT22;9420;50.876;7.012;2022-08-02T07:45:16;21.80;99.90
18581;DHT22;9420;50.876;7.012;2022-08-02T07:47:44;22.00;99.90
18581;DHT22;9420;50.876;7.012;2022-08-02T07:50:15;22.10;99.90
18581;DHT22;9420;50.876;7.012;2022-08-02T07:52:44;22.20;99.90
18581;DHT22;9420;50.876;7.012;2022-08-02T07:55:13;22.30;99.90
18581;DHT22;9420;50.876;7.012;2022-08-02T07:57:42;22.40;99.90
18581;DHT22;9420;50.876;7.012;2022-08-02T08:00:10;22.50;99.90
18581;DHT22;9420;50.876;7.012;2022-08-02T08:02:39;22.60;99.90
18581;DHT22;9420;50.876;7.012;2022-08-02T08:05:07;22.70;99.90
18581;DHT22;9420;50.876;7.012;2022-08-02T08:07:36;23.00;99.90
18581;DHT22;9420;50.876;7.012;2022-08-02T08:10:05;23.10;99.90
18581;DHT22;9420;50.876;7.012;2022-08-02T08:12:33;23.10;99.90
18581;DHT22;9420;50.876;7.012;2022-08-02T08:15:01;23.10;99.90
18581;DHT22;9420;50.876;7.012;2022-08-02T08:17:28;23.10;99.90
18581;DHT22;9420;50.876;7.012;2022-08-02T08:19:55;23.30;99.90
18581;DHT22;9420;50.876;7.012;2022-08-02T08:22:23;23.50;99.90
18581;DHT22;9420;50.876;7.012;2022-08-02T08:24:51;23.60;99.90
18581;DHT22;9420;50.876;7.012;2022-08-02T08:27:19;23.70;99.90
18581;DHT22;9420;50.876;7.012;2022-08-02T08:29:48;24.00;99.90
18581;DHT22;9420;50.876;7.012;2022-08-02T08:32:16;24.20;99.90
18581;DHT22;9420;50.876;7.012;2022-08-02T08:34:43;24.20;99.90
18581;DHT22;9420;50.876;7.012;2022-08-02T08:37:10;24.40;99.90
18581;DHT22;9420;50.876;7.012;2022-08-02T08:39:37;24.60;99.90
18581;DHT22;9420;50.876;7.012;2022-08-02T08:42:07;24.80;99.90
18581;DHT22;9420;50.876;7.012;2022-08-02T08:44:34;25.00;99.90
18581;DHT22;9420;50.876;7.012;2022-08-02T08:47:04;25.30;99.90
18581;DHT22;9420;50.876;7.012;2022-08-02T08:49:39;25.10;99.90
18581;DHT22;9420;50.876;7.012;2022-08-02T08:52:07;25.00;99.90
18581;DHT22;9420;50.876;7.012;2022-08-02T08:54:38;25.20;99.90
18581;DHT22;9420;50.876;7.012;2022-08-02T08:57:08;25.40;99.90
18581;DHT22;9420;50.876;7.012;2022-08-02T08:59:36;25.70;99.90
18581;DHT22;9420;50.876;7.012;2022-08-02T09:02:03;26.00;99.90
18581;DHT22;9420;50.876;7.012;2022-08-02T09:04:31;26.30;99.90
18581;DHT22;9420;50.876;7.012;2022-08-02T09:07:00;26.30;99.90
18581;DHT22;9420;50.876;7.012;2022-08-02T09:09:28;26.40;99.90
18581;DHT22;9420;50.876;7.012;2022-08-02T09:12:13;26.70;99.90
18581;DHT22;9420;50.876;7.012;2022-08-02T09:14:41;27.00;99.90
18581;DHT22;9420;50.876;7.012;2022-08-02T09:17:10;27.10;99.90
18581;DHT22;9420;50.876;7.012;2022-08-02T09:19:38;27.40;99.90
18581;DHT22;9420;50.876;7.012;2022-08-02T09:22:07;27.20;99.90
18581;DHT22;9420;50.876;7.012;2022-08-02T09:24:44;27.30;99.90
18581;DHT22;9420;50.876;7.012;2022-08-02T09:27:15;26.90;99.90
18581;DHT22;9420;50.876;7.012;2022-08-02T09:29:48;26.90;99.90
18581;DHT22;9420;50.876;7.012;2022-08-02T09:32:18;27.00;99.90
18581;DHT22;9420;50.876;7.012;2022-08-02T09:34:47;27.30;99.90
18581;DHT22;9420;50.876;7.012;2022-08-02T09:37:23;27.60;99.90
18581;DHT22;9420;50.876;7.012;2022-08-02T09:39:51;28.20;99.90
18581;DHT22;9420;50.876;7.012;2022-08-02T09:42:20;28.40;99.90
18581;DHT22;9420;50.876;7.012;2022-08-02T09:44:55;28.60;99.90
18581;DHT22;9420;50.876;7.012;2022-08-02T09:47:23;28.70;99.90
18581;DHT22;9420;50.876;7.012;2022-08-02T09:49:53;29.00;99.90
18581;DHT22;9420;50.876;7.012;2022-08-02T09:52:22;29.40;99.90
18581;DHT22;9420;50.876;7.012;2022-08-02T09:54:53;28.80;99.90
18581;DHT22;9420;50.876;7.012;2022-08-02T09:57:36;28.40;99.90
18581;DHT22;9420;50.876;7.012;2022-08-02T10:00:07;27.80;99.90
18581;DHT22;9420;50.876;7.012;2022-08-02T10:02:36;28.10;99.90
18581;DHT22;9420;50.876;7.012;2022-08-02T10:05:03;28.00;99.90
18581;DHT22;9420;50.876;7.012;2022-08-02T10:07:31;27.70;99.90
18581;DHT22;9420;50.876;7.012;2022-08-02T10:09:59;27.50;99.90
18581;DHT22;9420;50.876;7.012;2022-08-02T10:12:27;27.60;99.90
18581;DHT22;9420;50.876;7.012;2022-08-02T10:14:56;27.70;99.90
18581;DHT22;9420;50.876;7.012;2022-08-02T10:17:25;27.50;99.90
18581;DHT22;9420;50.876;7.012;2022-08-02T10:19:52;28.10;99.90
18581;DHT22;9420;50.876;7.012;2022-08-02T10:22:19;28.10;99.90
18581;DHT22;9420;50.876;7.012;2022-08-02T10:24:48;28.50;99.90
18581;DHT22;9420;50.876;7.012;2022-08-02T10:27:18;28.60;99.90
18581;DHT22;9420;50.876;7.012;2022-08-02T10:29:48;29.10;99.90
18581;DHT22;9420;50.876;7.012;2022-08-02T10:32:21;29.60;99.90
18581;DHT22;9420;50.876;7.012;2022-08-02T10:34:54;29.50;99.90
18581;DHT22;9420;50.876;7.012;2022-08-02T10:37:28;29.50;99.90
18581;DHT22;9420;50.876;7.012;2022-08-02T10:39:59;29.50;98.50
18581;DHT22;9420;50.876;7.012;2022-08-02T10:42:42;29.90;98.60
18581;DHT22;9420;50.876;7.012;2022-08-02T10:45:13;29.60;96.80
18581;DHT22;9420;50.876;7.012;2022-08-02T10:47:58;29.70;98.40
18581;DHT22;9420;50.876;7.012;2022-08-02T10:50:51;30.30;96.70
18581;DHT22;9420;50.876;7.012;2022-08-02T10:53:26;30.60;97.20
18581;DHT22;9420;50.876;7.012;2022-08-02T10:55:56;31.50;96.50
18581;DHT22;9420;50.876;7.012;2022-08-02T10:58:26;31.70;96.20
18581;DHT22;9420;50.876;7.012;2022-08-02T11:00:56;30.90;90.40
18581;DHT22;9420;50.876;7.012;2022-08-02T11:03:40;30.70;90.20
18581;DHT22;9420;50.876;7.012;2022-08-02T11:06:11;31.10;90.00
18581;DHT22;9420;50.876;7.012;2022-08-02T11:08:39;31.60;86.70
18581;DHT22;9420;50.876;7.012;2022-08-02T11:11:17;31.60;83.30
18581;DHT22;9420;50.876;7.012;2022-08-02T11:14:01;31.00;82.40
18581;DHT22;9420;50.876;7.012;2022-08-02T11:17:11;31.00;80.60
18581;DHT22;9420;50.876;7.012;2022-08-02T11:20:16;31.10;81.00
18581;DHT22;9420;50.876;7.012;2022-08-02T11:22:45;31.60;82.50
18581;DHT22;9420;50.876;7.012;2022-08-02T11:25:32;31.70;81.00
18581;DHT22;9420;50.876;7.012;2022-08-02T11:28:08;31.80;79.50
18581;DHT22;9420;50.876;7.012;2022-08-02T11:30:37;32.50;80.10
18581;DHT22;9420;50.876;7.012;2022-08-02T11:33:05;32.60;75.90
18581;DHT22;9420;50.876;7.012;2022-08-02T11:35:36;31.10;77.90
18581;DHT22;9420;50.876;7.012;2022-08-02T11:38:15;31.10;81.40
18581;DHT22;9420;50.876;7.012;2022-08-02T11:40:44;31.80;82.30
18581;DHT22;9420;50.876;7.012;2022-08-02T11:43:21;32.00;80.00
18581;DHT22;9420;50.876;7.012;2022-08-02T11:45:51;30.80;81.40
18581;DHT22;9420;50.876;7.012;2022-08-02T11:48:31;31.40;80.60
18581;DHT22;9420;50.876;7.012;2022-08-02T11:51:09;33.20;82.50
18581;DHT22;9420;50.876;7.012;2022-08-02T11:53:42;33.40;76.20
18581;DHT22;9420;50.876;7.012;2022-08-02T11:56:12;33.60;74.80
18581;DHT22;9420;50.876;7.012;2022-08-02T11:58:39;33.30;75.00
18581;DHT22;9420;50.876;7.012;2022-08-02T12:01:07;32.20;78.90
18581;DHT22;9420;50.876;7.012;2022-08-02T12:03:36;31.30;82.40
18581;DHT22;9420;50.876;7.012;2022-08-02T12:06:06;30.90;83.80
18581;DHT22;9420;50.876;7.012;2022-08-02T12:08:36;30.60;85.40
18581;DHT22;9420;50.876;7.012;2022-08-02T12:11:03;30.70;83.10
18581;DHT22;9420;50.876;7.012;2022-08-02T12:13:41;31.60;83.10
18581;DHT22;9420;50.876;7.012;2022-08-02T12:16:10;31.70;79.40
18581;DHT22;9420;50.876;7.012;2022-08-02T12:18:55;31.80;80.40
18581;DHT22;9420;50.876;7.012;2022-08-02T12:21:42;31.60;81.20
18581;DHT22;9420;50.876;7.012;2022-08-02T12:24:10;31.50;82.50
18581;DHT22;9420;50.876;7.012;2022-08-02T12:26:41;31.30;84.50
18581;DHT22;9420;50.876;7.012;2022-08-02T12:29:09;31.40;85.10
18581;DHT22;9420;50.876;7.012;2022-08-02T12:31:41;31.40;82.90
18581;DHT22;9420;50.876;7.012;2022-08-02T12:34:13;31.80;83.80
18581;DHT22;9420;50.876;7.012;2022-08-02T12:36:43;31.90;84.00
18581;DHT22;9420;50.876;7.012;2022-08-02T12:39:36;31.30;81.20
18581;DHT22;9420;50.876;7.012;2022-08-02T12:42:08;30.90;81.00
18581;DHT22;9420;50.876;7.012;2022-08-02T12:44:38;30.80;82.90
18581;DHT22;9420;50.876;7.012;2022-08-02T12:47:16;30.80;84.50
18581;DHT22;9420;50.876;7.012;2022-08-02T12:49:43;30.70;83.60
18581;DHT22;9420;50.876;7.012;2022-08-02T12:52:22;30.80;81.60
18581;DHT22;9420;50.876;7.012;2022-08-02T12:54:50;30.70;83.10
18581;DHT22;9420;50.876;7.012;2022-08-02T12:57:18;30.70;84.60
18581;DHT22;9420;50.876;7.012;2022-08-02T12:59:50;30.70;84.60
18581;DHT22;9420;50.876;7.012;2022-08-02T13:02:18;31.10;84.10
18581;DHT22;9420;50.876;7.012;2022-08-02T13:04:46;31.60;81.50
18581;DHT22;9420;50.876;7.012;2022-08-02T13:07:13;32.60;81.70
18581;DHT22;9420;50.876;7.012;2022-08-02T13:09:41;33.30;79.90
18581;DHT22;9420;50.876;7.012;2022-08-02T13:12:11;33.70;78.20
18581;DHT22;9420;50.876;7.012;2022-08-02T13:14:38;33.30;77.10
18581;DHT22;9420;50.876;7.012;2022-08-02T13:17:06;33.50;77.20
18581;DHT22;9420;50.876;7.012;2022-08-02T13:19:33;32.70;77.90
18581;DHT22;9420;50.876;7.012;2022-08-02T13:22:01;32.70;78.60
18581;DHT22;9420;50.876;7.012;2022-08-02T13:24:28;32.70;77.50
18581;DHT22;9420;50.876;7.012;2022-08-02T13:26:57;32.90;77.60
18581;DHT22;9420;50.876;7.012;2022-08-02T13:29:24;33.30;75.80
18581;DHT22;9420;50.876;7.012;2022-08-02T13:31:51;33.60;75.20
18581;DHT22;9420;50.876;7.012;2022-08-02T13:34:18;34.60;72.40
18581;DHT22;9420;50.876;7.012;2022-08-02T13:36:45;35.00;71.80
18581;DHT22;9420;50.876;7.012;2022-08-02T13:39:12;35.20;72.20
18581;DHT22;9420;50.876;7.012;2022-08-02T13:41:39;35.50;72.90
18581;DHT22;9420;50.876;7.012;2022-08-02T13:44:07;35.50;67.90
18581;DHT22;9420;50.876;7.012;2022-08-02T13:46:35;34.90;68.70
18581;DHT22;9420;50.876;7.012;2022-08-02T13:49:04;34.60;69.00
18581;DHT22;9420;50.876;7.012;2022-08-02T13:51:31;35.40;70.40
18581;DHT22;9420;50.876;7.012;2022-08-02T13:53:58;35.20;67.80
18581;DHT22;9420;50.876;7.012;2022-08-02T13:56:25;34.40;68.20
18581;DHT22;9420;50.876;7.012;2022-08-02T13:58:52;33.40;69.50
18581;DHT22;9420;50.876;7.012;2022-08-02T14:01:21;33.30;70.40
18581;DHT22;9420;50.876;7.012;2022-08-02T14:03:48;33.70;72.70
18581;DHT22;9420;50.876;7.012;2022-08-02T14:06:16;33.30;70.80
18581;DHT22;9420;50.876;7.012;2022-08-02T14:08:43;33.30;70.90
18581;DHT22;9420;50.876;7.012;2022-08-02T14:11:10;33.50;69.80
18581;DHT22;9420;50.876;7.012;2022-08-02T14:13:37;33.70;69.80
18581;DHT22;9420;50.876;7.012;2022-08-02T14:16:04;34.80;68.30
18581;DHT22;9420;50.876;7.012;2022-08-02T14:18:33;35.40;67.60
18581;DHT22;9420;50.876;7.012;2022-08-02T14:21:00;35.50;65.60
18581;DHT22;9420;50.876;7.012;2022-08-02T14:23:28;35.10;67.00
18581;DHT22;9420;50.876;7.012;2022-08-02T14:25:57;35.30;67.30
18581;DHT22;9420;50.876;7.012;2022-08-02T14:28:25;35.70;66.70
18581;DHT22;9420;50.876;7.012;2022-08-02T14:30:52;34.60;67.00
18581;DHT22;9420;50.876;7.012;2022-08-02T14:33:19;35.20;67.40
18581;DHT22;9420;50.876;7.012;2022-08-02T14:35:49;35.60;65.00
18581;DHT22;9420;50.876;7.012;2022-08-02T14:38:16;36.20;64.60
18581;DHT22;9420;50.876;7.012;2022-08-02T14:40:43;34.90;66.20
18581;DHT22;9420;50.876;7.012;2022-08-02T14:43:11;35.50;66.30
18581;DHT22;9420;50.876;7.012;2022-08-02T14:45:59;35.90;64.60
18581;DHT22;9420;50.876;7.012;2022-08-02T14:48:26;36.70;65.90
18581;DHT22;9420;50.876;7.012;2022-08-02T14:50:54;36.40;65.50
18581;DHT22;9420;50.876;7.012;2022-08-02T14:53:21;36.70;62.20
18581;DHT22;9420;50.876;7.012;2022-08-02T14:55:48;36.10;62.20
18581;DHT22;9420;50.876;7.012;2022-08-02T14:58:16;35.40;62.20
18581;DHT22;9420;50.876;7.012;2022-08-02T15:00:43;35.00;64.60
18581;DHT22;9420;50.876;7.012;2022-08-02T15:03:10;34.80;64.20
18581;DHT22;9420;50.876;7.012;2022-08-02T15:05:37;34.90;65.50
18581;DHT22;9420;50.876;7.012;2022-08-02T15:08:06;34.40;64.00
18581;DHT22;9420;50.876;7.012;2022-08-02T15:10:34;35.00;64.80
18581;DHT22;9420;50.876;7.012;2022-08-02T15:13:01;35.20;64.80
18581;DHT22;9420;50.876;7.012;2022-08-02T15:15:28;35.80;62.80
18581;DHT22;9420;50.876;7.012;2022-08-02T15:17:55;36.50;63.50
18581;DHT22;9420;50.876;7.012;2022-08-02T15:20:22;36.60;61.60
18581;DHT22;9420;50.876;7.012;2022-08-02T15:22:50;36.80;62.70
18581;DHT22;9420;50.876;7.012;2022-08-02T15:25:18;37.70;59.00
18581;DHT22;9420;50.876;7.012;2022-08-02T15:27:45;37.40;58.00
18581;DHT22;9420;50.876;7.012;2022-08-02T15:30:13;36.80;59.30
18581;DHT22;9420;50.876;7.012;2022-08-02T15:32:40;35.60;59.60
18581;DHT22;9420;50.876;7.012;2022-08-02T15:35:07;35.30;61.00
18581;DHT22;9420;50.876;7.012;2022-08-02T15:37:34;35.60;59.50
18581;DHT22;9420;50.876;7.012;2022-08-02T15:40:01;35.40;59.70
18581;DHT22;9420;50.876;7.012;2022-08-02T15:42:30;35.20;59.70
18581;DHT22;9420;50.876;7.012;2022-08-02T15:44:57;35.60;61.20
18581;DHT22;9420;50.876;7.012;2022-08-02T15:47:25;35.80;61.50
18581;DHT22;9420;50.876;7.012;2022-08-02T15:49:52;36.40;59.30
18581;DHT22;9420;50.876;7.012;2022-08-02T15:52:19;36.20;59.30
18581;DHT22;9420;50.876;7.012;2022-08-02T15:54:46;36.50;60.00
18581;DHT22;9420;50.876;7.012;2022-08-02T15:57:13;36.00;58.70
18581;DHT22;9420;50.876;7.012;2022-08-02T15:59:42;35.50;60.00
18581;DHT22;9420;50.876;7.012;2022-08-02T16:02:09;35.90;62.10
18581;DHT22;9420;50.876;7.012;2022-08-02T16:04:37;35.80;60.70